createdAt,value
2023-02-03T00:00:19.558Z,101224.02
2023-02-03T00:03:07.475Z,101229.95
2023-02-03T00:05:36.378Z,101231.70
2023-02-03T00:08:05.889Z,101234.15
2023-02-03T00:10:35.145Z,101236.66
2023-02-03T00:13:03.207Z,101234.41
2023-02-03T00:15:33.360Z,101233.39
2023-02-03T00:18:01.389Z,101228.52
2023-02-03T00:20:29.488Z,101230.88
2023-02-03T00:23:11.257Z,101231.79
2023-02-03T00:25:40.597Z,101226.23
2023-02-03T00:28:11.406Z,101224.85
2023-02-03T00:30:39.459Z,101225.88
2023-02-03T00:33:07.565Z,101223.86
2023-02-03T00:35:39.186Z,101221.61
2023-02-03T00:38:07.360Z,101220.98
2023-02-03T00:40:35.343Z,101218.48
2023-02-03T00:43:03.335Z,101215.13
2023-02-03T00:45:31.593Z,101212.45
2023-02-03T00:47:59.571Z,101208.70
2023-02-03T00:50:27.942Z,101205.91
2023-02-03T00:52:56.275Z,101201.46
2023-02-03T00:55:24.279Z,101191.98
2023-02-03T00:57:52.121Z,101196.67
2023-02-03T01:00:20.988Z,101192.25
2023-02-03T01:02:49.257Z,101185.77
2023-02-03T01:05:17.151Z,101184.10
2023-02-03T01:07:45.237Z,101182.16
2023-02-03T01:10:14.831Z,101177.48
2023-02-03T01:12:43.163Z,101176.91
2023-02-03T01:15:11.111Z,101179.69
2023-02-03T01:17:39.262Z,101180.30
2023-02-03T01:20:07.666Z,101179.14
2023-02-03T01:22:35.607Z,101171.66
2023-02-03T01:25:04.228Z,101168.06
2023-02-03T01:27:33.094Z,101161.16
2023-02-03T01:30:01.327Z,101151.84
2023-02-03T01:32:29.274Z,101148.81
2023-02-03T01:34:57.203Z,101144.28
2023-02-03T01:37:25.295Z,101138.23
2023-02-03T01:39:53.318Z,101132.69
2023-02-03T01:42:21.192Z,101125.37
2023-02-03T01:44:53.952Z,101117.16
2023-02-03T01:47:27.884Z,101109.08
2023-02-03T01:50:14.611Z,101101.98
2023-02-03T01:52:44.676Z,101099.44
2023-02-03T01:55:16.683Z,101093.33
2023-02-03T01:57:49.762Z,101085.89
2023-02-03T02:00:18.253Z,101078.03
2023-02-03T02:02:47.996Z,101071.45
2023-02-03T02:05:51.196Z,101063.69
2023-02-03T02:08:22.665Z,101051.98
2023-02-03T02:10:50.970Z,101043.28
2023-02-03T02:13:20.353Z,101039.48
2023-02-03T02:16:12.538Z,101040.89
2023-02-03T02:19:22.121Z,101045.09
2023-02-03T02:22:04.951Z,101045.50
2023-02-03T02:25:10.506Z,101050.95
2023-02-03T02:28:17.981Z,101057.23
2023-02-03T02:31:14.768Z,101057.63
2023-02-03T02:33:57.556Z,101046.25
2023-02-03T02:36:40.711Z,101039.05
2023-02-03T02:39:46.385Z,101040.27
2023-02-03T02:42:37.249Z,101037.58
2023-02-03T02:45:15.085Z,101023.71
2023-02-03T02:47:43.370Z,101014.34
2023-02-03T02:50:25.527Z,101001.62
2023-02-03T02:52:54.683Z,100995.85
2023-02-03T02:55:29.093Z,100990.23
2023-02-03T02:58:00.507Z,100978.30
2023-02-03T03:00:31.507Z,100972.96
2023-02-03T03:03:17.116Z,100966.63
2023-02-03T03:05:51.314Z,100960.09
2023-02-03T03:08:22.777Z,100955.00
2023-02-03T03:10:52.408Z,100949.20
2023-02-03T03:13:25.318Z,100937.99
2023-02-03T03:15:54.257Z,100929.90
2023-02-03T03:18:28.264Z,100923.98
2023-02-03T03:20:57.729Z,100908.39
2023-02-03T03:23:30.296Z,100908.06
2023-02-03T03:26:04.493Z,100912.41
2023-02-03T03:28:37.745Z,100914.38
2023-02-03T03:31:06.069Z,100915.58
2023-02-03T03:33:34.052Z,100909.49
2023-02-03T03:36:05.445Z,100908.54
2023-02-03T03:38:39.808Z,100901.13
2023-02-03T03:41:27.858Z,100905.10
2023-02-03T03:44:00.542Z,100901.95
2023-02-03T03:46:32.108Z,100909.86
2023-02-03T03:49:04.769Z,100906.58
2023-02-03T03:51:37.583Z,100905.38
2023-02-03T03:54:09.132Z,100897.70
2023-02-03T03:56:42.118Z,100889.55
2023-02-03T03:59:10.723Z,100890.23
2023-02-03T04:01:39.918Z,100888.19
2023-02-03T04:04:10.885Z,100886.77
2023-02-03T04:06:39.970Z,100877.84
2023-02-03T04:09:08.037Z,100879.36
2023-02-03T04:11:54.897Z,100880.41
2023-02-03T04:14:22.907Z,100878.39
2023-02-03T04:16:53.557Z,100873.13
2023-02-03T04:19:21.825Z,100867.81
2023-02-03T04:21:50.070Z,100863.80
2023-02-03T04:24:18.252Z,100855.96
2023-02-03T04:26:46.332Z,100851.77
2023-02-03T04:29:14.564Z,100845.36
2023-02-03T04:31:42.590Z,100843.30
2023-02-03T04:34:10.780Z,100831.18
2023-02-03T04:36:39.355Z,100826.24
2023-02-03T04:39:07.291Z,100821.06
2023-02-03T04:41:35.372Z,100809.31
2023-02-03T04:44:03.448Z,100812.92
2023-02-03T04:46:31.506Z,100808.66
2023-02-03T04:48:59.393Z,100802.06
2023-02-03T04:51:27.630Z,100799.35
2023-02-03T04:53:55.676Z,100799.98
2023-02-03T04:56:23.755Z,100801.69
2023-02-03T04:58:51.828Z,100792.57
2023-02-03T05:01:19.827Z,100790.74
2023-02-03T05:03:47.853Z,100783.56
2023-02-03T05:06:15.913Z,100776.52
2023-02-03T05:08:43.785Z,100776.70
2023-02-03T05:11:11.841Z,100776.80
2023-02-03T05:13:39.822Z,100780.83
2023-02-03T05:16:07.961Z,100779.59
2023-02-03T05:18:35.863Z,100776.39
2023-02-03T05:21:04.316Z,100771.85
2023-02-03T05:23:33.924Z,100764.41
2023-02-03T05:26:02.970Z,100761.55
2023-02-03T05:28:30.947Z,100751.38
2023-02-03T05:30:59.733Z,100747.30
2023-02-03T05:33:28.614Z,100742.59
2023-02-03T05:35:57.112Z,100741.85
2023-02-03T05:38:25.389Z,100737.41
2023-02-03T05:41:12.699Z,100737.83
2023-02-03T05:43:41.934Z,100733.02
2023-02-03T05:46:09.921Z,100734.82
2023-02-03T05:48:38.122Z,100729.14
2023-02-03T05:51:06.107Z,100721.67
2023-02-03T05:53:37.158Z,100714.85
2023-02-03T05:56:05.499Z,100705.41
2023-02-03T05:58:33.526Z,100694.87
2023-02-03T06:01:01.611Z,100690.93
2023-02-03T06:03:29.553Z,100683.29
2023-02-03T06:05:59.083Z,100687.36
2023-02-03T06:08:28.783Z,100680.13
2023-02-03T06:11:00.777Z,100671.44
2023-02-03T06:13:28.888Z,100664.90
2023-02-03T06:15:57.468Z,100654.91
2023-02-03T06:18:26.266Z,100649.04
2023-02-03T06:20:54.632Z,100645.00
2023-02-03T06:23:23.178Z,100638.29
2023-02-03T06:25:52.361Z,100631.83
2023-02-03T06:28:20.632Z,100634.52
2023-02-03T06:30:53.377Z,100625.04
2023-02-03T06:33:22.037Z,100616.89
2023-02-03T06:35:50.069Z,100613.88
2023-02-03T06:38:18.221Z,100608.27
2023-02-03T06:40:48.214Z,100603.17
2023-02-03T06:43:19.684Z,100596.38
2023-02-03T06:45:48.108Z,100590.03
2023-02-03T06:48:16.485Z,100584.23
2023-02-03T06:50:48.247Z,100575.69
2023-02-03T06:53:16.681Z,100561.11
2023-02-03T06:55:44.543Z,100546.36
2023-02-03T06:58:12.524Z,100540.22
2023-02-03T07:00:40.904Z,100536.65
2023-02-03T07:03:08.872Z,100531.83
2023-02-03T07:05:40.998Z,100527.08
2023-02-03T07:08:09.077Z,100528.92
2023-02-03T07:10:37.267Z,100522.66
2023-02-03T07:13:07.283Z,100514.54
2023-02-03T07:15:35.732Z,100505.38
2023-02-03T07:18:09.451Z,100505.39
2023-02-03T07:20:40.191Z,100489.02
2023-02-03T07:23:08.787Z,100484.70
2023-02-03T07:25:36.782Z,100474.27
2023-02-03T07:28:04.920Z,100469.33
2023-02-03T07:30:32.899Z,100462.88
2023-02-03T07:33:03.528Z,100462.19
2023-02-03T07:35:31.873Z,100455.98
2023-02-03T07:37:59.738Z,100445.71
2023-02-03T07:40:28.341Z,100440.20
2023-02-03T07:42:56.632Z,100435.98
2023-02-03T07:45:25.071Z,100428.88
2023-02-03T07:47:53.038Z,100420.52
2023-02-03T07:50:21.122Z,100408.38
2023-02-03T07:52:51.180Z,100395.97
2023-02-03T07:55:19.381Z,100385.60
2023-02-03T07:57:47.318Z,100378.95
2023-02-03T08:00:17.098Z,100368.51
2023-02-03T08:02:45.435Z,100360.55
2023-02-03T08:05:14.124Z,100350.09
2023-02-03T08:07:42.655Z,100350.67
2023-02-03T08:10:12.788Z,100354.95
2023-02-03T08:12:43.906Z,100352.19
2023-02-03T08:15:12.811Z,100345.27
2023-02-03T08:17:42.144Z,100336.33
2023-02-03T08:20:13.224Z,100324.08
2023-02-03T08:22:41.393Z,100321.25
2023-02-03T08:25:09.916Z,100319.53
2023-02-03T08:27:41.798Z,100306.42
2023-02-03T08:30:13.000Z,100295.46
2023-02-03T08:32:41.482Z,100296.08
2023-02-03T08:35:09.747Z,100281.57
2023-02-03T08:37:38.311Z,100288.12
2023-02-03T08:40:07.377Z,100273.06
2023-02-03T08:42:35.742Z,100272.50
2023-02-03T08:45:05.240Z,100279.38
2023-02-03T08:47:33.887Z,100263.23
2023-02-03T08:50:02.252Z,100246.02
2023-02-03T08:52:31.030Z,100237.19
2023-02-03T08:54:59.133Z,100226.04
2023-02-03T08:57:27.411Z,100223.98
2023-02-03T08:59:55.596Z,100217.76
2023-02-03T09:02:23.811Z,100219.95
2023-02-03T09:04:52.227Z,100215.59
2023-02-03T09:07:20.622Z,100225.50
2023-02-03T09:09:48.768Z,100222.55
2023-02-03T09:12:17.599Z,100211.36
2023-02-03T09:14:46.015Z,100196.27
2023-02-03T09:17:14.015Z,100190.23
2023-02-03T09:19:42.278Z,100181.99
2023-02-03T09:22:13.637Z,100176.48
2023-02-03T09:24:42.232Z,100175.11
2023-02-03T09:27:10.260Z,100173.61
2023-02-03T09:29:38.461Z,100170.81
2023-02-03T09:32:09.145Z,100168.23
2023-02-03T09:34:37.948Z,100162.45
2023-02-03T09:37:06.219Z,100157.87
2023-02-03T09:39:34.461Z,100148.35
2023-02-03T09:42:13.161Z,100142.39
2023-02-03T09:45:22.959Z,100128.52
2023-02-03T09:47:55.624Z,100126.19
2023-02-03T09:50:29.132Z,100121.13
2023-02-03T09:52:59.309Z,100111.21
2023-02-03T09:55:32.043Z,100110.23
2023-02-03T09:58:23.270Z,100101.11
2023-02-03T10:00:58.519Z,100092.40
2023-02-03T10:03:43.728Z,100082.96
2023-02-03T10:06:17.984Z,100072.31
2023-02-03T10:08:57.658Z,100064.30
2023-02-03T10:11:51.510Z,100056.26
2023-02-03T10:14:29.901Z,100046.28
2023-02-03T10:17:01.425Z,100035.02
2023-02-03T10:19:50.062Z,100025.48
2023-02-03T10:22:22.310Z,100013.52
2023-02-03T10:25:28.574Z,99998.77
2023-02-03T10:28:00.401Z,99991.46
2023-02-03T10:30:34.731Z,99979.17
2023-02-03T10:33:11.087Z,99970.16
2023-02-03T10:35:58.284Z,99960.56
2023-02-03T10:38:46.958Z,99950.96
2023-02-03T10:41:19.662Z,99935.47
2023-02-03T10:43:53.188Z,99927.44
2023-02-03T10:46:27.925Z,99912.71
2023-02-03T10:48:56.773Z,99902.19
2023-02-03T10:51:40.906Z,99896.89
2023-02-03T10:54:29.428Z,99887.91
2023-02-03T10:57:03.966Z,99887.40
2023-02-03T10:59:34.893Z,99878.47
2023-02-03T11:02:11.444Z,99878.61
2023-02-03T11:04:39.677Z,99866.17
2023-02-03T11:07:24.744Z,99851.10
2023-02-03T11:09:52.701Z,99846.03
2023-02-03T11:12:20.843Z,99839.89
2023-02-03T11:14:51.316Z,99829.94
2023-02-03T11:17:27.471Z,99820.83
2023-02-03T11:20:20.366Z,99813.16
2023-02-03T11:22:48.498Z,99802.23
2023-02-03T11:25:26.509Z,99794.15
2023-02-03T11:27:55.627Z,99793.56
2023-02-03T11:30:27.550Z,99788.14
2023-02-03T11:32:56.433Z,99782.33
2023-02-03T11:35:26.791Z,99776.39
2023-02-03T11:37:59.968Z,99765.96
2023-02-03T11:40:38.666Z,99760.17
2023-02-03T11:43:16.142Z,99751.84
2023-02-03T11:45:54.180Z,99746.89
2023-02-03T11:48:30.722Z,99740.33
2023-02-03T11:51:27.337Z,99728.66
2023-02-03T11:54:14.002Z,99733.22
2023-02-03T11:57:06.745Z,99724.00
2023-02-03T12:00:13.290Z,99719.42
2023-02-03T12:03:03.579Z,99707.34
2023-02-03T12:05:48.672Z,99694.84
2023-02-03T12:08:32.399Z,99682.59
2023-02-03T12:11:32.887Z,99685.60
2023-02-03T12:14:19.894Z,99686.14
2023-02-03T12:17:00.236Z,99678.13
2023-02-03T12:19:51.305Z,99676.13
2023-02-03T12:23:04.755Z,99669.56
2023-02-03T12:25:59.001Z,99659.83
2023-02-03T12:28:59.638Z,99651.25
2023-02-03T12:31:43.549Z,99637.34
2023-02-03T12:34:38.616Z,99635.50
2023-02-03T12:37:09.781Z,99628.60
2023-02-03T12:39:46.148Z,99621.45
2023-02-03T12:42:18.949Z,99621.20
2023-02-03T12:45:00.673Z,99616.78
2023-02-03T12:47:42.987Z,99606.40
2023-02-03T12:50:34.275Z,99603.92
2023-02-03T12:53:17.582Z,99599.15
2023-02-03T12:55:50.496Z,99592.40
2023-02-03T12:58:23.074Z,99588.39
2023-02-03T13:01:03.789Z,99585.30
2023-02-03T13:04:08.983Z,99582.11
2023-02-03T13:06:46.795Z,99576.38
2023-02-03T13:09:33.270Z,99568.20
2023-02-03T13:12:22.595Z,99564.61
2023-02-03T13:14:59.094Z,99569.48
2023-02-03T13:17:30.215Z,99573.92
2023-02-03T13:20:06.348Z,99569.54
2023-02-03T13:22:34.324Z,99568.88
2023-02-03T13:25:20.015Z,99571.88
2023-02-03T13:28:15.496Z,99568.98
2023-02-03T13:30:52.136Z,99573.13
2023-02-03T13:33:35.578Z,99574.27
2023-02-03T13:36:39.898Z,99578.58
2023-02-03T13:39:29.811Z,99588.46
2023-02-03T13:42:20.176Z,99593.56
2023-02-03T13:44:51.707Z,99604.26
2023-02-03T13:47:24.883Z,99585.20
2023-02-03T13:49:56.676Z,99585.57
2023-02-03T13:52:30.151Z,99580.73
2023-02-03T13:54:58.172Z,99577.55
2023-02-03T13:57:35.131Z,99585.27
2023-02-03T14:00:28.147Z,99608.48
2023-02-03T14:02:56.626Z,99616.69
2023-02-03T14:06:01.834Z,99626.16
2023-02-03T14:08:29.890Z,99629.98
2023-02-03T14:11:35.222Z,99624.61
2023-02-03T14:14:12.421Z,99630.60
2023-02-03T14:16:41.477Z,99621.25
2023-02-03T14:19:11.546Z,99618.90
2023-02-03T14:21:53.423Z,99612.96
2023-02-03T14:24:21.827Z,99610.64
2023-02-03T14:26:50.828Z,99622.51
2023-02-03T14:29:29.520Z,99629.27
2023-02-03T14:31:59.545Z,99625.31
2023-02-03T14:34:44.724Z,99619.92
2023-02-03T14:37:23.336Z,99624.67
2023-02-03T14:40:16.552Z,99633.51
2023-02-03T14:43:11.746Z,99638.31
2023-02-03T14:45:49.280Z,99647.54
2023-02-03T14:48:41.891Z,99640.01
2023-02-03T14:51:13.196Z,99645.54
2023-02-03T14:54:18.212Z,99637.45
2023-02-03T14:57:24.316Z,99648.70
2023-02-03T14:59:55.172Z,99646.58
2023-02-03T15:02:27.370Z,99657.58
2023-02-03T15:05:15.752Z,99666.55
2023-02-03T15:07:46.959Z,99662.79
2023-02-03T15:10:30.153Z,99662.39
2023-02-03T15:12:59.027Z,99664.17
2023-02-03T15:15:33.763Z,99671.13
2023-02-03T15:18:22.184Z,99674.20
2023-02-03T15:20:54.541Z,99670.85
2023-02-03T15:23:25.324Z,99677.91
2023-02-03T15:25:57.184Z,99683.48
2023-02-03T15:28:27.290Z,99682.52
2023-02-03T15:31:06.059Z,99678.90
2023-02-03T15:33:35.698Z,99683.91
2023-02-03T15:36:08.897Z,99677.44
2023-02-03T15:38:42.247Z,99673.89
2023-02-03T15:41:25.741Z,99679.70
2023-02-03T15:43:57.477Z,99680.21
2023-02-03T15:46:38.138Z,99691.57
2023-02-03T15:49:17.775Z,99693.67
2023-02-03T15:51:57.241Z,99692.19
2023-02-03T15:54:30.598Z,99696.46
2023-02-03T15:57:11.212Z,99699.70
2023-02-03T15:59:49.424Z,99698.95
2023-02-03T16:02:46.160Z,99694.41
2023-02-03T16:05:31.341Z,99700.45
2023-02-03T16:08:49.426Z,99705.48
2023-02-03T16:11:29.185Z,99702.02
2023-02-03T16:13:59.945Z,99700.77
2023-02-03T16:16:31.083Z,99706.75
2023-02-03T16:19:12.575Z,99709.90
2023-02-03T16:21:53.873Z,99713.92
2023-02-03T16:24:45.886Z,99731.15
2023-02-03T16:27:26.279Z,99731.23
2023-02-03T16:30:17.212Z,99736.50
2023-02-03T16:33:29.954Z,99755.25
2023-02-03T16:36:21.455Z,99759.38
2023-02-03T16:39:09.034Z,99773.67
2023-02-03T16:41:55.647Z,99779.61
2023-02-03T16:44:42.592Z,99783.16
2023-02-03T16:47:47.197Z,99783.44
2023-02-03T16:50:39.393Z,99791.10
2023-02-03T16:53:13.652Z,99797.59
2023-02-03T16:55:42.931Z,99797.01
2023-02-03T16:58:12.675Z,99802.21
2023-02-03T17:00:42.133Z,99804.16
2023-02-03T17:03:14.802Z,99806.38
2023-02-03T17:05:44.791Z,99809.20
2023-02-03T17:08:13.391Z,99809.06
2023-02-03T17:10:42.765Z,99808.27
2023-02-03T17:13:11.058Z,99824.00
2023-02-03T17:15:58.649Z,99813.19
2023-02-03T17:18:27.052Z,99823.38
2023-02-03T17:20:56.484Z,99820.71
2023-02-03T17:23:26.819Z,99822.91
2023-02-03T17:25:55.023Z,99825.34
2023-02-03T17:28:23.053Z,99829.14
2023-02-03T17:30:57.045Z,99828.98
2023-02-03T17:33:25.659Z,99827.25
2023-02-03T17:36:08.642Z,99833.18
2023-02-03T17:55:20.098Z,99841.35
2023-02-03T17:57:48.144Z,99847.77
2023-02-03T18:00:16.549Z,99849.13
2023-02-03T18:02:45.110Z,99848.33
2023-02-03T18:05:13.406Z,99851.59
2023-02-03T18:07:41.822Z,99846.92
2023-02-03T18:10:10.357Z,99849.41
2023-02-03T18:12:38.542Z,99842.80
2023-02-03T18:15:07.347Z,99844.83
2023-02-03T18:17:35.380Z,99846.89
2023-02-03T18:20:04.044Z,99847.44
2023-02-03T18:22:32.619Z,99838.83
2023-02-03T18:25:00.710Z,99840.89
2023-02-03T18:27:29.080Z,99844.36
2023-02-03T18:29:57.303Z,99844.69
2023-02-03T18:32:25.522Z,99844.21
2023-02-03T18:34:54.049Z,99839.19
2023-02-03T18:37:22.353Z,99833.05
2023-02-03T18:39:50.187Z,99839.52
2023-02-03T18:42:21.408Z,99844.65
2023-02-03T18:44:49.351Z,99849.09
2023-02-03T18:47:17.734Z,99849.67
2023-02-03T18:49:45.834Z,99852.02
2023-02-03T18:52:13.856Z,99849.67
2023-02-03T18:54:42.266Z,99851.67
2023-02-03T18:57:14.058Z,99859.80
2023-02-03T18:59:41.989Z,99859.91
2023-02-03T19:02:11.262Z,99861.10
2023-02-03T19:04:39.216Z,99862.40
2023-02-03T19:07:07.095Z,99864.52
2023-02-03T19:09:36.129Z,99868.09
2023-02-03T19:12:05.102Z,99869.30
2023-02-03T19:14:33.458Z,99863.60
2023-02-03T19:17:02.204Z,99867.94
2023-02-03T19:19:30.713Z,99866.77
2023-02-03T19:21:59.071Z,99866.23
2023-02-03T19:24:27.392Z,99859.08
2023-02-03T19:26:55.987Z,99855.71
2023-02-03T19:29:24.018Z,99856.76
2023-02-03T19:31:52.459Z,99860.73
2023-02-03T19:34:20.656Z,99856.24
2023-02-03T19:36:48.668Z,99848.90
2023-02-03T19:39:17.678Z,99854.51
2023-02-03T19:41:45.630Z,99856.50
2023-02-03T19:44:14.683Z,99854.36
2023-02-03T19:46:43.807Z,99854.84
2023-02-03T19:49:13.431Z,99850.89
2023-02-03T19:51:42.791Z,99842.78
2023-02-03T19:54:12.970Z,99848.96
2023-02-03T19:56:43.396Z,99855.19
2023-02-03T19:59:11.806Z,99853.85
2023-02-03T20:01:40.305Z,99857.54
2023-02-03T20:04:08.450Z,99861.20
2023-02-03T20:06:36.620Z,99854.22
2023-02-03T20:09:06.625Z,99854.51
2023-02-03T20:11:34.911Z,99857.48
2023-02-03T20:14:03.212Z,99864.73
2023-02-03T20:16:31.416Z,99867.75
2023-02-03T20:19:01.566Z,99863.95
2023-02-03T20:21:29.982Z,99861.31
2023-02-03T20:23:58.425Z,99864.16
2023-02-03T20:26:26.503Z,99865.76
2023-02-03T20:28:54.609Z,99864.45
2023-02-03T20:31:22.907Z,99865.08
2023-02-03T20:33:52.500Z,99868.39
2023-02-03T20:36:20.946Z,99865.10
2023-02-03T20:38:51.215Z,99869.02
2023-02-03T20:41:21.894Z,99868.91
2023-02-03T20:43:50.028Z,99866.30
2023-02-03T20:46:19.834Z,99865.58
2023-02-03T20:48:48.886Z,99861.63
2023-02-03T20:51:19.094Z,99866.16
2023-02-03T20:53:50.381Z,99859.71
2023-02-03T20:56:22.032Z,99863.36
2023-02-03T20:58:50.092Z,99857.40
2023-02-03T21:01:21.095Z,99849.33
2023-02-03T21:04:07.784Z,99845.32
2023-02-03T21:06:36.161Z,99839.75
2023-02-03T21:09:15.968Z,99830.64
2023-02-03T21:11:44.891Z,99832.23
2023-02-03T21:14:35.146Z,99835.23
2023-02-03T21:17:03.519Z,99833.61
2023-02-03T21:19:34.352Z,99833.27
2023-02-03T21:22:13.965Z,99839.98
2023-02-03T21:24:46.436Z,99836.50
2023-02-03T21:27:44.552Z,99843.05
2023-02-03T21:30:28.779Z,99839.76
2023-02-03T21:32:58.391Z,99847.54
2023-02-03T21:35:29.684Z,99851.48
2023-02-03T21:38:02.950Z,99852.99
2023-02-03T21:40:32.485Z,99846.27
2023-02-03T21:43:02.419Z,99849.59
2023-02-03T21:45:36.860Z,99845.66
2023-02-03T21:48:32.272Z,99846.63
2023-02-03T21:51:22.880Z,99851.58
2023-02-03T21:53:56.699Z,99843.63
2023-02-03T21:56:38.796Z,99848.87
2023-02-03T21:59:17.642Z,99845.14
2023-02-03T22:01:45.931Z,99853.93
2023-02-03T22:04:15.364Z,99847.13
2023-02-03T22:06:45.529Z,99842.57
2023-02-03T22:09:21.057Z,99841.23
2023-02-03T22:11:49.034Z,99836.48
2023-02-03T22:14:18.169Z,99841.52
2023-02-03T22:16:46.620Z,99843.80
2023-02-03T22:19:17.734Z,99839.31
2023-02-03T22:21:47.806Z,99831.46
2023-02-03T22:24:15.946Z,99831.71
2023-02-03T22:26:43.895Z,99826.79
2023-02-03T22:29:12.057Z,99832.78
2023-02-03T22:31:42.724Z,99842.23
2023-02-03T22:34:10.891Z,99842.91
2023-02-03T22:36:38.739Z,99840.96
2023-02-03T22:39:07.238Z,99841.04
2023-02-03T22:41:35.330Z,99842.34
2023-02-03T22:44:03.304Z,99844.50
2023-02-03T22:46:31.314Z,99845.08
2023-02-03T22:48:59.615Z,99839.23
2023-02-03T22:51:27.631Z,99839.08
2023-02-03T22:53:55.624Z,99832.64
2023-02-03T22:56:23.746Z,99832.45
2023-02-03T22:58:51.925Z,99830.39
2023-02-03T23:01:20.024Z,99836.15
2023-02-03T23:03:47.926Z,99836.10
2023-02-03T23:06:15.938Z,99835.45
2023-02-03T23:08:44.130Z,99839.22
2023-02-03T23:11:12.154Z,99824.49
2023-02-03T23:13:40.111Z,99816.17
2023-02-03T23:16:08.377Z,99816.37
2023-02-03T23:18:36.294Z,99819.45
2023-02-03T23:21:04.465Z,99823.42
2023-02-03T23:23:32.573Z,99816.04
2023-02-03T23:26:00.605Z,99809.85
2023-02-03T23:28:28.576Z,99812.96
2023-02-03T23:30:56.639Z,99818.25
2023-02-03T23:33:24.611Z,99821.94
2023-02-03T23:35:52.858Z,99830.05
2023-02-03T23:38:20.744Z,99841.98
2023-02-03T23:40:48.754Z,99865.23
2023-02-03T23:43:16.928Z,99873.35
2023-02-03T23:45:44.874Z,99876.61
2023-02-03T23:48:13.369Z,99877.08
2023-02-03T23:50:41.328Z,99902.45
2023-02-03T23:53:10.129Z,99897.59
2023-02-03T23:55:38.120Z,99903.71
2023-02-03T23:58:06.053Z,99902.33
